Time,TemperatureF,DewpointF,PressureIn,WindDirection,WindDirectionDegrees,WindSpeedMPH,WindSpeedGustMPH,Humidity,HourlyPrecipIn,Conditions,Clouds,dailyrainin,SoftwareType,DateUTC
2013-02-02 00:05:00,43.9,40.6,30.23,NNW,329,1.1,1.1,88,0.00,RA,,0.00,WeatherDisplay:10.37,2013-02-02 08:05:00,
2013-02-02 00:10:00,43.0,39.4,30.23,NNW,329,1.1,1.1,87,0.00,CLR,,0.00,WeatherDisplay:10.37,2013-02-02 08:10:00,
2013-02-02 00:16:00,42.9,39.9,30.23,NNW,328,0.0,0.0,89,0.00,CLR,,0.00,WeatherDisplay:10.37,2013-02-02 08:16:00,
2013-02-02 00:21:00,42.4,39.7,30.23,NNE,28,3.0,3.0,90,0.00,CLR,,0.00,WeatherDisplay:10.37,2013-02-02 08:21:00,
2013-02-02 00:26:00,42.8,39.8,30.23,NE,44,1.1,1.1,89,0.00,CLR,,0.00,WeatherDisplay:10.37,2013-02-02 08:26:00,
2013-02-02 00:31:00,42.9,39.9,30.23,NE,44,0.0,0.0,89,0.00,CLR,,0.00,WeatherDisplay:10.37,2013-02-02 08:31:00,
2013-02-02 00:36:00,42.7,39.4,30.23,East,89,1.1,1.1,88,0.00,CLR,,0.00,WeatherDisplay:10.37,2013-02-02 08:36:00,
2013-02-02 00:42:00,42.0,39.0,30.23,ENE,67,2.3,2.3,89,0.00,CLR,,0.00,WeatherDisplay:10.37,2013-02-02 08:42:00,
2013-02-02 00:47:00,41.9,38.9,30.23,North,359,2.3,2.3,89,0.00,CLR,,0.00,WeatherDisplay:10.37,2013-02-02 08:47:00,
2013-02-02 00:52:00,42.1,39.4,30.23,North,359,1.1,1.1,90,0.00,CLR,,0.00,WeatherDisplay:10.37,2013-02-02 08:52:00,
2013-02-02 00:57:00,42.5,39.8,30.23,North,1,1.1,0.0,90,0.00,CLR,,0.00,WeatherDisplay:10.37,2013-02-02 08:57:00,
2013-02-02 01:02:00,42.7,40.0,30.23,North,360,0.0,0.0,90,0.00,CLR,,0.00,WeatherDisplay:10.37,2013-02-02 09:02:00,
2013-02-02 01:08:00,42.8,40.1,30.23,North,1,0.0,0.0,90,0.00,CLR,,0.00,WeatherDisplay:10.37,2013-02-02 09:08:00,
2013-02-02 01:13:00,43.0,40.3,30.23,North,1,0.0,0.0,90,0.00,CLR,,0.00,WeatherDisplay:10.37,2013-02-02 09:13:00,
2013-02-02 01:18:00,43.1,40.1,30.24,North,359,1.1,1.1,89,0.00,CLR,,0.00,WeatherDisplay:10.37,2013-02-02 09:18:00,
2013-02-02 01:23:00,43.5,40.5,30.24,ENE,59,0.0,0.0,89,0.00,CLR,,0.00,WeatherDisplay:10.37,2013-02-02 09:23:00,
2013-02-02 01:28:00,43.5,40.2,30.24,ENE,60,0.0,0.0,88,0.00,CLR,,0.00,WeatherDisplay:10.37,2013-02-02 09:28:00,
2013-02-02 01:33:00,43.3,40.0,30.24,ENE,59,1.1,1.1,88,0.00,CLR,,0.00,WeatherDisplay:10.37,2013-02-02 09:33:00,
2013-02-02 01:38:00,42.8,39.5,30.24,SW,226,1.1,1.1,88,0.00,CLR,,0.00,WeatherDisplay:10.37,2013-02-02 09:38:00,
2013-02-02 01:43:00,42.7,39.7,30.24,SW,226,1.1,1.1,89,0.00,CLR,,0.00,WeatherDisplay:10.37,2013-02-02 09:43:00,
2013-02-02 01:48:00,42.6,39.6,30.24,SW,226,1.1,1.1,89,0.00,CLR,,0.00,WeatherDisplay:10.37,2013-02-02 09:48:00,
2013-02-02 01:53:00,42.7,39.7,30.24,SW,226,0.0,0.0,89,0.00,CLR,,0.00,WeatherDisplay:10.37,2013-02-02 09:53:00,
2013-02-02 01:58:00,42.7,39.7,30.25,SW,226,0.0,0.0,89,0.00,CLR,,0.00,WeatherDisplay:10.37,2013-02-02 09:58:00,
2013-02-02 02:04:00,42.3,39.3,30.25,SW,226,0.0,0.0,89,0.00,CLR,,0.00,WeatherDisplay:10.37,2013-02-02 10:04:00,
2013-02-02 02:09:00,41.5,38.5,30.25,SW,229,1.1,1.1,89,0.00,CLR,,0.00,WeatherDisplay:10.37,2013-02-02 10:09:00,
2013-02-02 02:14:00,41.0,38.3,30.25,SW,229,1.1,1.1,90,0.00,CLR,,0.00,WeatherDisplay:10.37,2013-02-02 10:14:00,
2013-02-02 02:20:00,41.0,38.6,30.25,SW,229,0.0,0.0,91,0.00,CLR,,0.00,WeatherDisplay:10.37,2013-02-02 10:20:00,
2013-02-02 02:25:00,41.3,38.9,30.25,WSW,240,1.1,0.0,91,0.00,CLR,,0.00,WeatherDisplay:10.37,2013-02-02 10:25:00,
2013-02-02 02:30:00,41.9,39.5,30.26,WSW,240,1.1,1.1,91,0.00,CLR,,0.00,WeatherDisplay:10.37,2013-02-02 10:30:00,
2013-02-02 02:35:00,42.0,39.3,30.26,West,260,0.0,0.0,90,0.00,CLR,,0.00,WeatherDisplay:10.37,2013-02-02 10:35:00,
2013-02-02 02:40:00,41.4,38.4,30.25,NW,322,2.0,2.0,89,0.00,CLR,,0.00,WeatherDisplay:10.37,2013-02-02 10:40:00,
2013-02-02 02:45:00,40.8,37.8,30.25,NNW,338,2.3,2.3,89,0.00,CLR,,0.00,WeatherDisplay:10.37,2013-02-02 10:45:00,
2013-02-02 02:50:00,40.8,38.4,30.25,NNW,333,2.3,2.3,91,0.00,CLR,,0.00,WeatherDisplay:10.37,2013-02-02 10:50:00,
2013-02-02 02:56:00,41.6,39.4,30.25,NW,314,0.0,0.0,92,0.00,CLR,,0.00,WeatherDisplay:10.37,2013-02-02 10:56:00,
2013-02-02 03:01:00,42.0,39.6,30.25,NW,314,0.0,0.0,91,0.00,CLR,,0.00,WeatherDisplay:10.37,2013-02-02 11:01:00,
2013-02-02 03:06:00,42.1,39.7,30.24,NW,314,0.0,0.0,91,0.00,CLR,,0.00,WeatherDisplay:10.37,2013-02-02 11:06:00,
2013-02-02 03:11:00,41.9,39.2,30.24,NW,314,0.0,0.0,90,0.00,CLR,,0.00,WeatherDisplay:10.37,2013-02-02 11:11:00,
2013-02-02 03:16:00,41.4,38.7,30.24,ENE,71,2.3,2.3,90,0.00,CLR,,0.00,WeatherDisplay:10.37,2013-02-02 11:16:00,
2013-02-02 03:21:00,41.4,39.0,30.24,ENE,67,2.3,2.3,91,0.00,CLR,,0.00,WeatherDisplay:10.37,2013-02-02 11:21:00,
2013-02-02 03:27:00,41.5,38.8,30.24,East,80,2.3,2.3,90,0.00,CLR,,0.00,WeatherDisplay:10.37,2013-02-02 11:27:00,
2013-02-02 03:32:00,41.2,38.8,30.24,ENE,76,3.5,3.5,91,0.00,CLR,,0.00,WeatherDisplay:10.37,2013-02-02 11:32:00,
2013-02-02 03:37:00,41.2,38.8,30.24,East,99,1.1,1.1,91,0.00,CLR,,0.00,WeatherDisplay:10.37,2013-02-02 11:37:00,
2013-02-02 03:42:00,41.4,39.0,30.25,ENE,68,1.1,0.0,91,0.00,CLR,,0.00,WeatherDisplay:10.37,2013-02-02 11:42:00,
2013-02-02 03:48:00,41.6,39.2,30.25,East,94,1.1,1.1,91,0.00,CLR,,0.00,WeatherDisplay:10.37,2013-02-02 11:48:00,
2013-02-02 03:53:00,41.8,39.4,30.25,SSE,156,1.0,1.0,91,0.00,CLR,,0.00,WeatherDisplay:10.37,2013-02-02 11:53:00,
2013-02-02 03:58:00,42.1,39.7,30.25,SSE,165,3.5,3.5,91,0.00,CLR,,0.00,WeatherDisplay:10.37,2013-02-02 11:58:00,
2013-02-02 04:03:00,42.2,39.5,30.25,SW,229,2.3,2.3,90,0.00,CLR,,0.00,WeatherDisplay:10.37,2013-02-02 12:03:00,
2013-02-02 04:08:00,42.0,39.3,30.25,SSW,212,2.3,2.3,90,0.00,CLR,,0.00,WeatherDisplay:10.37,2013-02-02 12:08:00,
2013-02-02 04:13:00,41.8,39.1,30.25,SW,236,2.3,2.3,90,0.00,CLR,,0.00,WeatherDisplay:10.37,2013-02-02 12:13:00,
2013-02-02 04:18:00,41.8,39.1,30.25,WSW,239,3.5,3.5,90,0.00,CLR,,0.00,WeatherDisplay:10.37,2013-02-02 12:18:00,
2013-02-02 04:24:00,41.7,39.0,30.25,WSW,250,3.5,3.5,90,0.00,CLR,,0.00,WeatherDisplay:10.37,2013-02-02 12:24:00,
2013-02-02 04:29:00,41.6,39.2,30.25,SW,222,1.1,1.1,91,0.00,CLR,,0.00,WeatherDisplay:10.37,2013-02-02 12:29:00,
2013-02-02 04:34:00,41.5,39.1,30.25,SW,222,0.0,0.0,91,0.00,CLR,,0.00,WeatherDisplay:10.37,2013-02-02 12:34:00,
2013-02-02 04:39:00,41.4,39.0,30.25,SW,221,0.0,0.0,91,0.00,CLR,,0.00,WeatherDisplay:10.37,2013-02-02 12:39:00,
2013-02-02 04:44:00,41.1,38.4,30.24,SW,222,0.0,0.0,90,0.00,CLR,,0.00,WeatherDisplay:10.37,2013-02-02 12:44:00,
2013-02-02 04:49:00,40.8,38.4,30.24,SW,221,0.0,0.0,91,0.00,CLR,,0.00,WeatherDisplay:10.37,2013-02-02 12:49:00,
2013-02-02 04:54:00,40.8,38.4,30.24,SW,222,1.1,1.1,91,0.00,CLR,,0.00,WeatherDisplay:10.37,2013-02-02 12:54:00,
2013-02-02 05:00:00,40.9,38.8,30.24,ENE,58,2.0,2.0,92,0.00,CLR,,0.00,WeatherDisplay:10.37,2013-02-02 13:00:00,
2013-02-02 05:05:00,40.2,37.8,30.24,NW,318,2.3,2.3,91,0.00,CLR,,0.00,WeatherDisplay:10.37,2013-02-02 13:05:00,
2013-02-02 05:10:00,39.9,37.8,30.24,NNW,336,2.0,2.0,92,0.00,CLR,,0.00,WeatherDisplay:10.37,2013-02-02 13:10:00,
2013-02-02 05:16:00,40.0,37.9,30.24,NW,311,2.3,2.3,92,0.00,CLR,,0.00,WeatherDisplay:10.37,2013-02-02 13:16:00,
2013-02-02 05:21:00,40.5,38.6,30.24,NW,316,1.1,1.1,93,0.00,CLR,,0.00,WeatherDisplay:10.37,2013-02-02 13:21:00,
2013-02-02 05:26:00,40.9,38.8,30.24,NW,316,0.0,0.0,92,0.00,CLR,,0.00,WeatherDisplay:10.37,2013-02-02 13:26:00,
2013-02-02 05:31:00,40.8,38.7,30.24,NW,314,0.0,0.0,92,0.00,CLR,,0.00,WeatherDisplay:10.37,2013-02-02 13:31:00,
2013-02-02 05:36:00,40.8,38.7,30.25,NW,314,0.0,0.0,92,0.00,CLR,,0.00,WeatherDisplay:10.37,2013-02-02 13:36:00,
2013-02-02 05:41:00,40.6,38.5,30.25,NW,315,0.0,0.0,92,0.00,CLR,,0.00,WeatherDisplay:10.37,2013-02-02 13:41:00,
2013-02-02 05:46:00,40.6,38.5,30.25,NW,314,0.0,0.0,92,0.00,CLR,,0.00,WeatherDisplay:10.37,2013-02-02 13:46:00,
2013-02-02 05:51:00,40.6,38.5,30.25,NW,314,0.0,0.0,92,0.00,CLR,,0.00,WeatherDisplay:10.37,2013-02-02 13:51:00,
2013-02-02 05:56:00,40.6,38.5,30.25,NW,316,0.0,0.0,92,0.00,CLR,,0.00,WeatherDisplay:10.37,2013-02-02 13:56:00,
2013-02-02 06:01:00,40.2,38.1,30.25,NW,316,0.0,0.0,92,0.00,CLR,,0.00,WeatherDisplay:10.37,2013-02-02 14:01:00,
2013-02-02 06:06:00,39.7,37.3,30.25,NW,316,0.0,0.0,91,0.00,CLR,,0.00,WeatherDisplay:10.37,2013-02-02 14:06:00,
2013-02-02 06:11:00,39.5,37.4,30.25,NNE,21,1.1,1.1,92,0.00,CLR,,0.00,WeatherDisplay:10.37,2013-02-02 14:11:00,
2013-02-02 06:17:00,39.6,37.7,30.25,ENE,70,1.1,1.1,93,0.00,CLR,,0.00,WeatherDisplay:10.37,2013-02-02 14:17:00,
2013-02-02 06:22:00,39.5,37.6,30.25,ENE,70,1.1,1.1,93,0.00,CLR,,0.00,WeatherDisplay:10.37,2013-02-02 14:22:00,
2013-02-02 06:27:00,39.7,37.8,30.25,NNW,340,0.0,0.0,93,0.00,CLR,,0.00,WeatherDisplay:10.37,2013-02-02 14:27:00,
2013-02-02 06:32:00,39.4,37.3,30.25,NNW,340,0.0,0.0,92,0.00,CLR,,0.00,WeatherDisplay:10.37,2013-02-02 14:32:00,
2013-02-02 06:38:00,39.6,37.7,30.25,NNW,340,1.1,1.1,93,0.00,CLR,,0.00,WeatherDisplay:10.37,2013-02-02 14:38:00,
2013-02-02 06:43:00,39.1,37.0,30.26,NNW,342,1.1,1.1,92,0.00,CLR,,0.00,WeatherDisplay:10.37,2013-02-02 14:43:00,
2013-02-02 06:48:00,38.5,36.4,30.26,North,354,1.1,1.1,92,0.00,CLR,,0.00,WeatherDisplay:10.37,2013-02-02 14:48:00,
2013-02-02 06:53:00,38.5,36.7,30.26,North,4,2.3,2.3,93,0.00,CLR,,0.00,WeatherDisplay:10.37,2013-02-02 14:53:00,
2013-02-02 06:59:00,38.9,37.0,30.26,North,4,1.1,1.1,93,0.00,CLR,,0.00,WeatherDisplay:10.37,2013-02-02 14:59:00,
2013-02-02 07:04:00,39.1,37.5,30.26,North,4,0.0,0.0,94,0.00,CLR,,0.00,WeatherDisplay:10.37,2013-02-02 15:04:00,
2013-02-02 07:09:00,39.1,37.2,30.26,North,4,0.0,0.0,93,0.00,CLR,,0.00,WeatherDisplay:10.37,2013-02-02 15:09:00,
2013-02-02 07:14:00,38.9,37.0,30.27,North,4,0.0,0.0,93,0.00,CLR,,0.00,WeatherDisplay:10.37,2013-02-02 15:14:00,
2013-02-02 07:19:00,38.9,37.0,30.27,North,4,0.0,0.0,93,0.00,CLR,,0.00,WeatherDisplay:10.37,2013-02-02 15:19:00,
2013-02-02 07:24:00,39.0,37.1,30.27,North,4,1.1,1.1,93,0.00,CLR,,0.00,WeatherDisplay:10.37,2013-02-02 15:24:00,
2013-02-02 07:29:00,38.9,37.0,30.28,North,4,0.0,0.0,93,0.00,CLR,,0.00,WeatherDisplay:10.37,2013-02-02 15:29:00,
2013-02-02 07:34:00,38.8,36.9,30.28,North,4,0.0,0.0,93,0.00,CLR,,0.00,WeatherDisplay:10.37,2013-02-02 15:34:00,
2013-02-02 07:40:00,38.6,36.8,30.28,North,4,0.0,0.0,93,0.00,CLR,,0.00,WeatherDisplay:10.37,2013-02-02 15:40:00,
2013-02-02 07:45:00,38.8,36.9,30.28,North,4,0.0,0.0,93,0.00,CLR,,0.00,WeatherDisplay:10.37,2013-02-02 15:45:00,
2013-02-02 07:50:00,38.9,37.3,30.28,North,4,0.0,0.0,94,0.00,CLR,,0.00,WeatherDisplay:10.37,2013-02-02 15:50:00,
2013-02-02 07:55:00,39.1,37.5,30.28,North,4,0.0,0.0,94,0.00,CLR,,0.00,WeatherDisplay:10.37,2013-02-02 15:55:00,
2013-02-02 08:01:00,39.0,37.1,30.28,North,4,0.0,0.0,93,0.00,CLR,,0.00,WeatherDisplay:10.37,2013-02-02 16:01:00,
2013-02-02 08:06:00,39.0,37.1,30.29,North,4,1.1,0.0,93,0.00,CLR,,0.00,WeatherDisplay:10.37,2013-02-02 16:06:00,
2013-02-02 08:11:00,39.1,37.2,30.28,North,4,0.0,0.0,93,0.00,CLR,,0.00,WeatherDisplay:10.37,2013-02-02 16:11:00,
2013-02-02 08:16:00,39.4,37.5,30.29,North,4,0.0,0.0,93,0.00,CLR,,0.00,WeatherDisplay:10.37,2013-02-02 16:16:00,
2013-02-02 08:21:00,39.6,37.7,30.29,North,4,0.0,0.0,93,0.00,CLR,,0.00,WeatherDisplay:10.37,2013-02-02 16:21:00,
2013-02-02 08:27:00,39.8,38.2,30.29,North,4,0.0,0.0,94,0.00,CLR,,0.00,WeatherDisplay:10.37,2013-02-02 16:27:00,
2013-02-02 08:32:00,39.9,38.0,30.30,North,4,0.0,0.0,93,0.00,CLR,,0.00,WeatherDisplay:10.37,2013-02-02 16:32:00,
2013-02-02 08:37:00,40.2,38.6,30.30,North,4,0.0,0.0,94,0.00,CLR,,0.00,WeatherDisplay:10.37,2013-02-02 16:37:00,
2013-02-02 08:42:00,40.4,38.8,30.30,North,4,0.0,0.0,94,0.00,CLR,,0.00,WeatherDisplay:10.37,2013-02-02 16:42:00,
2013-02-02 08:47:00,40.7,39.1,30.30,North,4,0.0,0.0,94,0.00,CLR,,0.00,WeatherDisplay:10.37,2013-02-02 16:47:00,
2013-02-02 08:52:00,40.9,39.0,30.30,North,4,0.0,0.0,93,0.00,CLR,,0.00,WeatherDisplay:10.37,2013-02-02 16:52:00,
2013-02-02 08:57:00,41.2,39.3,30.30,North,1,0.0,0.0,93,0.00,CLR,,0.00,WeatherDisplay:10.37,2013-02-02 16:57:00,
2013-02-02 09:03:00,41.4,39.5,30.30,North,360,0.0,0.0,93,0.00,CLR,,0.00,WeatherDisplay:10.37,2013-02-02 17:03:00,
2013-02-02 09:08:00,41.7,39.8,30.31,North,359,0.0,0.0,93,0.00,CLR,,0.00,WeatherDisplay:10.37,2013-02-02 17:08:00,
2013-02-02 09:13:00,42.0,40.1,30.31,NE,47,1.1,1.1,93,0.00,CLR,,0.00,WeatherDisplay:10.37,2013-02-02 17:13:00,
2013-02-02 09:18:00,42.2,40.0,30.31,ENE,71,1.1,1.1,92,0.00,CLR,,0.00,WeatherDisplay:10.37,2013-02-02 17:18:00,
2013-02-02 09:23:00,42.5,40.3,30.31,ENE,70,1.1,1.1,92,0.00,CLR,,0.00,WeatherDisplay:10.37,2013-02-02 17:23:00,
2013-02-02 09:28:00,42.9,40.7,30.31,ENE,71,1.1,1.1,92,0.00,CLR,,0.00,WeatherDisplay:10.37,2013-02-02 17:28:00,
2013-02-02 09:33:00,43.2,41.0,30.31,NE,41,2.3,2.3,92,0.00,CLR,,0.00,WeatherDisplay:10.37,2013-02-02 17:33:00,
2013-02-02 09:39:00,43.6,41.1,30.31,North,8,3.5,3.5,91,0.00,CLR,,0.00,WeatherDisplay:10.37,2013-02-02 17:39:00,
2013-02-02 09:44:00,44.0,41.5,30.32,NW,326,3.5,3.5,91,0.00,CLR,,0.00,WeatherDisplay:10.37,2013-02-02 17:44:00,
2013-02-02 09:49:00,44.3,41.8,30.32,NNW,330,3.5,3.5,91,0.00,CLR,,0.00,WeatherDisplay:10.37,2013-02-02 17:49:00,
2013-02-02 09:54:00,44.6,42.1,30.32,NNW,334,2.3,2.3,91,0.00,CLR,,0.00,WeatherDisplay:10.37,2013-02-02 17:54:00,
2013-02-02 10:00:00,45.0,42.2,30.32,NNW,338,3.5,3.5,90,0.00,CLR,,0.00,WeatherDisplay:10.37,2013-02-02 18:00:00,
2013-02-02 10:05:00,45.3,42.5,30.32,NNW,340,2.3,2.3,90,0.00,CLR,,0.00,WeatherDisplay:10.37,2013-02-02 18:05:00,
2013-02-02 10:10:00,45.7,42.6,30.32,NW,318,2.3,2.3,89,0.00,CLR,,0.00,WeatherDisplay:10.37,2013-02-02 18:10:00,
2013-02-02 10:15:00,46.2,42.8,30.32,NW,318,3.5,3.5,88,0.00,CLR,,0.00,WeatherDisplay:10.37,2013-02-02 18:15:00,
2013-02-02 10:20:00,46.9,43.5,30.32,NNE,13,3.0,3.0,88,0.00,CLR,,0.00,WeatherDisplay:10.37,2013-02-02 18:20:00,
2013-02-02 10:25:00,47.5,43.8,30.32,NNE,28,3.5,3.5,87,0.00,CLR,,0.00,WeatherDisplay:10.37,2013-02-02 18:25:00,
2013-02-02 10:30:00,48.1,44.1,30.32,NW,319,3.5,3.5,86,0.00,CLR,,0.00,WeatherDisplay:10.37,2013-02-02 18:30:00,
2013-02-02 10:35:00,48.7,44.4,30.31,North,354,4.0,4.0,85,0.00,CLR,,0.00,WeatherDisplay:10.37,2013-02-02 18:35:00,
2013-02-02 10:40:00,49.2,44.9,30.31,North,359,3.5,3.5,85,0.00,CLR,,0.00,WeatherDisplay:10.37,2013-02-02 18:40:00,
2013-02-02 10:46:00,49.8,44.8,30.31,North,355,4.6,4.6,83,0.00,CLR,,0.00,WeatherDisplay:10.37,2013-02-02 18:46:00,
2013-02-02 10:51:00,50.6,45.6,30.31,North,5,3.5,3.5,83,0.00,CLR,,0.00,WeatherDisplay:10.37,2013-02-02 18:51:00,
2013-02-02 10:56:00,51.0,45.4,30.31,North,357,2.3,2.3,81,0.00,CLR,,0.00,WeatherDisplay:10.37,2013-02-02 18:56:00,
2013-02-02 11:02:00,51.4,45.8,30.31,NNE,16,4.6,4.6,81,0.00,CLR,,0.00,WeatherDisplay:10.37,2013-02-02 19:02:00,
2013-02-02 11:07:00,52.0,46.7,30.31,NNE,12,5.0,5.0,82,0.00,CLR,,0.00,WeatherDisplay:10.37,2013-02-02 19:07:00,
2013-02-02 11:12:00,52.4,46.7,30.30,NE,34,4.0,4.0,81,0.00,CLR,,0.00,WeatherDisplay:10.37,2013-02-02 19:12:00,
2013-02-02 11:17:00,52.7,46.7,30.30,NNW,339,4.6,4.6,80,0.00,CLR,,0.00,WeatherDisplay:10.37,2013-02-02 19:17:00,
2013-02-02 11:22:00,53.1,46.8,30.30,North,11,3.5,3.5,79,0.00,CLR,,0.00,WeatherDisplay:10.37,2013-02-02 19:22:00,
2013-02-02 11:27:00,53.5,46.8,30.29,NNE,17,3.5,3.5,78,0.00,CLR,,0.00,WeatherDisplay:10.37,2013-02-02 19:27:00,
2013-02-02 11:32:00,53.8,47.1,30.29,NNW,342,5.0,5.0,78,0.00,CLR,,0.00,WeatherDisplay:10.37,2013-02-02 19:32:00,
2013-02-02 11:38:00,54.4,47.3,30.29,East,82,2.3,2.3,77,0.00,CLR,,0.00,WeatherDisplay:10.37,2013-02-02 19:38:00,
2013-02-02 11:43:00,55.1,47.3,30.29,North,4,4.0,4.0,75,0.00,CLR,,0.00,WeatherDisplay:10.37,2013-02-02 19:43:00,
2013-02-02 11:48:00,55.5,47.3,30.28,NW,310,2.0,2.0,74,0.00,CLR,,0.00,WeatherDisplay:10.37,2013-02-02 19:48:00,
2013-02-02 11:53:00,55.8,46.5,30.28,ENE,60,4.6,4.6,71,0.00,CLR,,0.00,WeatherDisplay:10.37,2013-02-02 19:53:00,
2013-02-02 11:58:00,56.2,46.5,30.28,SSE,156,1.1,1.1,70,0.00,CLR,,0.00,WeatherDisplay:10.37,2013-02-02 19:58:00,
2013-02-02 12:03:00,57.1,46.6,30.28,ENE,75,4.6,4.6,68,0.00,CLR,,0.00,WeatherDisplay:10.37,2013-02-02 20:03:00,
2013-02-02 12:08:00,58.0,46.7,30.27,SSW,195,1.1,1.1,66,0.00,CLR,,0.00,WeatherDisplay:10.37,2013-02-02 20:08:00,
2013-02-02 12:13:00,59.0,46.0,30.27,WSW,248,2.3,2.3,62,0.00,CLR,,0.00,WeatherDisplay:10.37,2013-02-02 20:13:00,
2013-02-02 12:18:00,59.9,46.8,30.27,ENE,72,3.5,3.5,62,0.00,CLR,,0.00,WeatherDisplay:10.37,2013-02-02 20:18:00,
2013-02-02 12:23:00,60.5,47.0,30.27,South,176,3.5,3.5,61,0.00,CLR,,0.00,WeatherDisplay:10.37,2013-02-02 20:23:00,
2013-02-02 12:29:00,62.2,46.8,30.26,SW,214,2.3,2.3,57,0.00,CLR,,0.00,WeatherDisplay:10.37,2013-02-02 20:29:00,
2013-02-02 12:34:00,63.1,47.1,30.26,SE,142,1.1,1.1,56,0.00,CLR,,0.00,WeatherDisplay:10.37,2013-02-02 20:34:00,
2013-02-02 12:40:00,63.3,47.3,30.26,SE,128,3.5,3.5,56,0.00,CLR,,0.00,WeatherDisplay:10.37,2013-02-02 20:40:00,
2013-02-02 12:45:00,63.0,47.5,30.26,SSE,166,4.6,4.6,57,0.00,CLR,,0.00,WeatherDisplay:10.37,2013-02-02 20:45:00,
2013-02-02 12:50:00,62.7,47.7,30.25,SSE,167,4.6,4.6,58,0.00,CLR,,0.00,WeatherDisplay:10.37,2013-02-02 20:50:00,
2013-02-02 12:56:00,62.8,47.8,30.25,SSW,195,4.6,4.6,58,0.00,CLR,,0.00,WeatherDisplay:10.37,2013-02-02 20:56:00,
2013-02-02 13:01:00,62.7,48.6,30.25,South,186,2.3,0.0,60,0.00,CLR,,0.00,WeatherDisplay:10.37,2013-02-02 21:01:00,
2013-02-02 13:06:00,62.5,48.4,30.25,SE,133,3.5,3.5,60,0.00,CLR,,0.00,WeatherDisplay:10.37,2013-02-02 21:06:00,
2013-02-02 13:12:00,61.9,48.3,30.24,SSW,193,4.6,4.6,61,0.00,CLR,,0.00,WeatherDisplay:10.37,2013-02-02 21:12:00,
2013-02-02 13:17:00,62.0,48.4,30.24,SSW,194,3.5,3.5,61,0.00,CLR,,0.00,WeatherDisplay:10.37,2013-02-02 21:17:00,
2013-02-02 13:22:00,62.3,47.8,30.24,SE,142,3.5,3.5,59,0.00,CLR,,0.00,WeatherDisplay:10.37,2013-02-02 21:22:00,
2013-02-02 13:27:00,62.4,48.8,30.24,SSE,151,3.5,3.5,61,0.00,CLR,,0.00,WeatherDisplay:10.37,2013-02-02 21:27:00,
2013-02-02 13:32:00,62.6,48.5,30.24,ESE,117,4.6,4.6,60,0.00,CLR,,0.00,WeatherDisplay:10.37,2013-02-02 21:32:00,
2013-02-02 13:37:00,62.8,49.1,30.23,South,190,3.5,3.5,61,0.00,CLR,,0.00,WeatherDisplay:10.37,2013-02-02 21:37:00,
2013-02-02 13:42:00,63.4,49.7,30.23,South,187,2.3,2.3,61,0.00,CLR,,0.00,WeatherDisplay:10.37,2013-02-02 21:42:00,
2013-02-02 13:48:00,63.6,49.5,30.23,SSE,155,4.6,4.6,60,0.00,CLR,,0.00,WeatherDisplay:10.37,2013-02-02 21:48:00,
2013-02-02 13:53:00,63.8,49.2,30.22,SE,128,2.3,2.3,59,0.00,CLR,,0.00,WeatherDisplay:10.37,2013-02-02 21:53:00,
2013-02-02 13:58:00,63.6,49.5,30.22,SE,142,3.5,3.5,60,0.00,CLR,,0.00,WeatherDisplay:10.37,2013-02-02 21:58:00,
2013-02-02 14:03:00,63.3,49.2,30.22,SE,132,3.5,3.5,60,0.00,CLR,,0.00,WeatherDisplay:10.37,2013-02-02 22:03:00,
2013-02-02 14:08:00,63.3,49.6,30.22,South,173,5.8,5.8,61,0.00,CLR,,0.00,WeatherDisplay:10.37,2013-02-02 22:08:00,
2013-02-02 14:13:00,63.7,50.4,30.22,SE,130,3.5,3.5,62,0.00,CLR,,0.00,WeatherDisplay:10.37,2013-02-02 22:13:00,
2013-02-02 14:18:00,63.7,50.0,30.22,SE,136,5.8,5.8,61,0.00,CLR,,0.00,WeatherDisplay:10.37,2013-02-02 22:18:00,
2013-02-02 14:23:00,63.9,50.2,30.22,SE,132,3.5,3.5,61,0.00,CLR,,0.00,WeatherDisplay:10.37,2013-02-02 22:23:00,
2013-02-02 14:29:00,63.8,50.5,30.22,SSE,151,3.5,3.5,62,0.00,CLR,,0.00,WeatherDisplay:10.37,2013-02-02 22:29:00,
2013-02-02 14:34:00,63.7,50.0,30.22,SE,139,3.5,3.5,61,0.00,CLR,,0.00,WeatherDisplay:10.37,2013-02-02 22:34:00,
2013-02-02 14:39:00,63.7,50.0,30.22,SE,139,3.5,3.5,61,0.00,CLR,,0.00,WeatherDisplay:10.37,2013-02-02 22:39:00,
2013-02-02 19:10:00,53.7,48.7,30.24,SW,236,1.0,1.1,83,0.00,CLR,,0.00,WeatherDisplay:10.37,2013-02-03 03:10:00,
2013-02-02 19:15:00,53.7,49.0,30.24,South,172,1.1,0.0,84,0.00,CLR,,0.00,WeatherDisplay:10.37,2013-02-03 03:15:00,
2013-02-02 19:20:00,53.7,49.0,30.24,SW,233,1.1,0.0,84,0.00,CLR,,0.00,WeatherDisplay:10.37,2013-02-03 03:20:00,
2013-02-02 19:25:00,53.2,48.2,30.24,NE,50,2.3,2.3,83,0.00,CLR,,0.00,WeatherDisplay:10.37,2013-02-03 03:25:00,
2013-02-02 19:30:00,52.6,48.2,30.24,NE,50,2.3,2.3,85,0.00,CLR,,0.00,WeatherDisplay:10.37,2013-02-03 03:30:00,
2013-02-02 19:35:00,52.1,47.7,30.24,NE,49,0.0,0.0,85,0.00,CLR,,0.00,WeatherDisplay:10.37,2013-02-03 03:35:00,
2013-02-02 19:40:00,51.8,47.7,30.24,NE,50,0.0,0.0,86,0.00,CLR,,0.00,WeatherDisplay:10.37,2013-02-03 03:40:00,
2013-02-02 19:45:00,51.6,47.5,30.24,NE,50,0.0,0.0,86,0.00,CLR,,0.00,WeatherDisplay:10.37,2013-02-03 03:45:00,
2013-02-02 19:50:00,51.4,47.7,30.24,NE,50,0.0,0.0,87,0.00,CLR,,0.00,WeatherDisplay:10.37,2013-02-03 03:50:00,
2013-02-02 19:55:00,51.3,47.6,30.24,SW,235,1.1,1.1,87,0.00,CLR,,0.00,WeatherDisplay:10.37,2013-02-03 03:55:00,
2013-02-02 20:00:00,51.1,47.4,30.24,SW,235,0.0,0.0,87,0.00,CLR,,0.00,WeatherDisplay:10.37,2013-02-03 04:00:00,
2013-02-02 20:05:00,50.7,47.0,30.24,SW,232,1.1,0.0,87,0.00,CLR,,0.00,WeatherDisplay:10.37,2013-02-03 04:05:00,
2013-02-02 20:10:00,50.3,46.6,30.24,SW,232,0.0,0.0,87,0.00,CLR,,0.00,WeatherDisplay:10.37,2013-02-03 04:10:00,
2013-02-02 20:15:00,49.6,45.9,30.24,SW,232,0.0,0.0,87,0.00,CLR,,0.00,WeatherDisplay:10.37,2013-02-03 04:15:00,
2013-02-02 20:20:00,49.5,46.4,30.24,SW,232,0.0,0.0,89,0.00,CLR,,0.00,WeatherDisplay:10.37,2013-02-03 04:20:00,
2013-02-02 20:25:00,49.4,46.3,30.24,SW,232,0.0,0.0,89,0.00,CLR,,0.00,WeatherDisplay:10.37,2013-02-03 04:25:00,
2013-02-02 20:30:00,49.3,46.5,30.24,SW,232,0.0,0.0,90,0.00,CLR,,0.00,WeatherDisplay:10.37,2013-02-03 04:30:00,
2013-02-02 20:35:00,49.1,46.3,30.24,SSW,210,0.0,0.0,90,0.00,CLR,,0.00,WeatherDisplay:10.37,2013-02-03 04:35:00,
2013-02-02 20:40:00,47.9,44.5,30.24,East,82,1.1,0.0,88,0.00,CLR,,0.00,WeatherDisplay:10.37,2013-02-03 04:40:00,
2013-02-02 20:45:00,47.3,44.2,30.24,East,82,0.0,0.0,89,0.00,CLR,,0.00,WeatherDisplay:10.37,2013-02-03 04:45:00,
2013-02-02 20:50:00,46.8,44.0,30.24,East,82,0.0,0.0,90,0.00,CLR,,0.00,WeatherDisplay:10.37,2013-02-03 04:50:00,
2013-02-02 20:55:00,46.9,44.4,30.24,East,82,0.0,0.0,91,0.00,CLR,,0.00,WeatherDisplay:10.37,2013-02-03 04:55:00,
2013-02-02 21:00:00,47.0,44.8,30.24,East,82,0.0,0.0,92,0.00,CLR,,0.00,WeatherDisplay:10.37,2013-02-03 05:00:00,
2013-02-02 21:01:00,47.0,44.8,30.24,East,82,0.0,0.0,92,0.00,CLR,,0.00,WeatherDisplay:10.37,2013-02-03 05:01:00,
2013-02-02 21:06:00,46.6,44.1,30.24,East,82,0.0,0.0,91,0.00,CLR,,0.00,WeatherDisplay:10.37,2013-02-03 05:06:00,
2013-02-02 21:11:00,46.3,43.8,30.24,East,82,0.0,0.0,91,0.00,CLR,,0.00,WeatherDisplay:10.37,2013-02-03 05:11:00,
2013-02-02 21:16:00,46.3,44.1,30.24,East,82,0.0,0.0,92,0.00,CLR,,0.00,WeatherDisplay:10.37,2013-02-03 05:16:00,
2013-02-02 21:21:00,46.0,43.5,30.24,East,82,0.0,0.0,91,0.00,CLR,,0.00,WeatherDisplay:10.37,2013-02-03 05:21:00,
2013-02-02 21:26:00,45.8,43.6,30.24,East,82,0.0,0.0,92,0.00,CLR,,0.00,WeatherDisplay:10.37,2013-02-03 05:26:00,
2013-02-02 21:31:00,45.9,44.0,30.24,SSE,162,1.1,1.1,93,0.00,CLR,,0.00,WeatherDisplay:10.37,2013-02-03 05:31:00,
2013-02-02 21:36:00,45.9,43.7,30.24,WSW,240,2.0,2.0,92,0.00,CLR,,0.00,WeatherDisplay:10.37,2013-02-03 05:36:00,
2013-02-02 21:41:00,46.2,44.3,30.24,SW,232,2.3,2.3,93,0.00,CLR,,0.00,WeatherDisplay:10.37,2013-02-03 05:41:00,
2013-02-02 21:46:00,46.4,44.5,30.24,SW,232,1.1,1.1,93,0.00,CLR,,0.00,WeatherDisplay:10.37,2013-02-03 05:46:00,
2013-02-02 21:51:00,46.6,44.7,30.24,WSW,242,2.3,2.3,93,0.00,CLR,,0.00,WeatherDisplay:10.37,2013-02-03 05:51:00,
2013-02-02 21:56:00,46.9,45.0,30.24,SW,221,2.3,2.3,93,0.00,CLR,,0.00,WeatherDisplay:10.37,2013-02-03 05:56:00,
2013-02-02 22:01:00,46.9,44.7,30.24,South,186,0.0,0.0,92,0.00,CLR,,0.00,WeatherDisplay:10.37,2013-02-03 06:01:00,
2013-02-02 22:06:00,46.8,44.6,30.24,SW,232,1.1,1.1,92,0.00,CLR,,0.00,WeatherDisplay:10.37,2013-02-03 06:06:00,
2013-02-02 22:11:00,46.7,44.5,30.24,SW,221,0.0,0.0,92,0.00,CLR,,0.00,WeatherDisplay:10.37,2013-02-03 06:11:00,
2013-02-02 22:16:00,45.9,43.4,30.24,SW,221,0.0,0.0,91,0.00,CLR,,0.00,WeatherDisplay:10.37,2013-02-03 06:16:00,
2013-02-02 22:21:00,45.1,42.6,30.24,SW,221,0.0,0.0,91,0.00,CLR,,0.00,WeatherDisplay:10.37,2013-02-03 06:21:00,
2013-02-02 22:26:00,44.7,42.2,30.24,SW,221,0.0,0.0,91,0.00,CLR,,0.00,WeatherDisplay:10.37,2013-02-03 06:26:00,
2013-02-02 22:31:00,44.3,42.1,30.24,SW,221,0.0,0.0,92,0.00,CLR,,0.00,WeatherDisplay:10.37,2013-02-03 06:31:00,
2013-02-02 22:36:00,44.2,42.0,30.24,SW,221,0.0,0.0,92,0.00,CLR,,0.00,WeatherDisplay:10.37,2013-02-03 06:36:00,
2013-02-02 22:41:00,43.9,41.7,30.24,SW,221,0.0,0.0,92,0.00,CLR,,0.00,WeatherDisplay:10.37,2013-02-03 06:41:00,
2013-02-02 22:46:00,43.7,41.5,30.24,SW,221,0.0,0.0,92,0.00,CLR,,0.00,WeatherDisplay:10.37,2013-02-03 06:46:00,
2013-02-02 22:51:00,43.5,41.6,30.24,SW,221,0.0,0.0,93,0.00,CLR,,0.00,WeatherDisplay:10.37,2013-02-03 06:51:00,
2013-02-02 22:56:00,43.8,41.9,30.24,SW,221,0.0,0.0,93,0.00,CLR,,0.00,WeatherDisplay:10.37,2013-02-03 06:56:00,
2013-02-02 23:01:00,44.0,42.1,30.24,SW,220,0.0,0.0,93,0.00,CLR,,0.00,WeatherDisplay:10.37,2013-02-03 07:01:00,
2013-02-02 23:06:00,44.2,42.6,30.24,SW,222,0.0,0.0,94,0.00,CLR,,0.00,WeatherDisplay:10.37,2013-02-03 07:06:00,
2013-02-02 23:11:00,44.2,42.6,30.24,SW,222,0.0,0.0,94,0.00,CLR,,0.00,WeatherDisplay:10.37,2013-02-03 07:11:00,
2013-02-02 23:16:00,42.8,40.6,30.24,SW,222,0.0,0.0,92,0.00,CLR,,0.00,WeatherDisplay:10.37,2013-02-03 07:16:00,
2013-02-02 23:21:00,42.4,40.5,30.24,SW,222,0.0,0.0,93,0.00,CLR,,0.00,WeatherDisplay:10.37,2013-02-03 07:21:00,
2013-02-02 23:26:00,42.8,41.2,30.24,SW,222,0.0,0.0,94,0.00,CLR,,0.00,WeatherDisplay:10.37,2013-02-03 07:26:00,
2013-02-02 23:31:00,42.8,41.2,30.25,SW,221,0.0,0.0,94,0.00,CLR,,0.00,WeatherDisplay:10.37,2013-02-03 07:31:00,
2013-02-02 23:36:00,42.8,41.2,30.25,SW,221,0.0,0.0,94,0.00,CLR,,0.00,WeatherDisplay:10.37,2013-02-03 07:36:00,
2013-02-02 23:41:00,42.5,40.9,30.25,SW,222,0.0,0.0,94,0.00,CLR,,0.00,WeatherDisplay:10.37,2013-02-03 07:41:00,
2013-02-02 23:46:00,41.5,39.6,30.25,SW,222,0.0,0.0,93,0.00,CLR,,0.00,WeatherDisplay:10.37,2013-02-03 07:46:00,
2013-02-02 23:51:00,41.3,39.4,30.25,SW,222,0.0,0.0,93,0.00,CLR,,0.00,WeatherDisplay:10.37,2013-02-03 07:51:00,
2013-02-02 23:56:00,41.2,39.6,30.25,SW,222,0.0,0.0,94,0.00,CLR,,0.00,WeatherDisplay:10.37,2013-02-03 07:56:00,